Meath Environmental Platform

Observations

Time Sensor AQI SAQ Temp °C Hum % Pres Pa CO μg/m³ H₂S μg/m³ NO μg/m³ NO₂ μg/m³ O₃ μg/m³ SO₂ μg/m³ CO₂e PPM VOC PPM PM1 μg/m³ PM2.5 μg/m³ PM4 μg/m³ PM10 μg/m³ TPS µm
Thursday 13 August 2026
01:08 Trim Patrick St 3 21.3 63 74,839 0 14.75 1.15 37.74 39.83 4.48 5.43 10.77 11.84
01:07 Trim Market St 3 22.1 60 57,903 0 0 1.11 16.36 65.1 0 0 2.54 3.4
01:07 Trim Patrick St 3 21.4 63 74,784 0 13.11 1.13 48.32 41.2 4.18 3.71 9.27 10.2
01:06 Trim Market St 3 22.1 60 57,903 0 0 1.12 17.39 67.1 0 2.14 4.55 6.15
01:06 Trim Patrick St 3 21.3 63 74,719 0 9.5 1.13 20.84 54.62 5 5.43 10 11
01:05 Trim Patrick St 3 21.4 63 74,699 0 8.5 1.12 24.77 50.03 4.38 5.43 9.27 10.2
01:04 Trim Patrick St 3 21.4 63 74,671 0 9.37 1.14 23.21 50.8 4.6 4.57 8.57 9.42
01:03 Trim Patrick St 3 21.4 62 74,650 0 9.63 1.15 22.4 43.6 4.53 5.43 10.8 11.88
01:02 Trim Patrick St 3 21.4 62 74,615 0 9.76 1.16 32.85 53.06 4.09 4.57 8.62 9.48
01:01 Trim Market St 3 22.1 59 57,911 0 0 1.1 17.51 65.19 0 3.56 5.08 6.84
01:01 Trim Patrick St 3 21.4 62 74,571 0 7.76 1.15 20.92 48.1 4.51 5.43 10.05 11.05
01:00 Trim Market St 3 22.1 59 57,913 0 0 1.1 18.37 62.48 0 2.14 4.08 5.45
01:00 Trim Patrick St 3 21.4 62 74,552 0 9.66 1.16 20.48 47.18 4.19 5.43 10.8 11.88
00:59 Trim Market St 3 22.2 59 57,913 0 0 1.09 21.39 59.17 0 2.14 4.08 6.14
00:59 Trim Patrick St 3 21.5 62 74,526 0 12.08 1.14 33.04 48.34 4.55 6.29 10.82 11.9
00:58 Trim Market St 3 22.2 59 57,913 0 0 1.09 16.96 63.97 0 2.14 4.58 6.14
00:58 Trim Patrick St 3 21.5 62 74,497 0 9.18 1.13 25.21 58.39 4.7 5.43 9.33 10.26
00:57 Trim Market St 3 22.2 59 57,913 0 0 1.09 16.97 65.18 0 2.14 4.08 5.45
00:57 Trim Patrick St 3 21.5 62 74,473 0 7.86 1.13 19.86 48.72 4.66 4.57 8.6 9.46
00:56 Trim Market St 3 22.2 59 57,913 0 0 1.09 15.38 65.2 0 0.71 3.59 4.75